createdAt,value
2022-08-20T00:01:28.571Z,1
2022-08-20T00:03:28.363Z,1
2022-08-20T00:05:28.115Z,1
2022-08-20T00:07:28.098Z,1
2022-08-20T00:09:36.573Z,1
2022-08-20T00:11:28.991Z,1
2022-08-20T00:13:28.007Z,1
2022-08-20T00:15:27.892Z,1
2022-08-20T00:19:27.790Z,1
2022-08-20T00:21:27.705Z,1
2022-08-20T00:23:26.619Z,1
2022-08-20T00:25:28.402Z,1
2022-08-20T00:27:28.014Z,1
2022-08-20T00:29:27.817Z,1
2022-08-20T00:31:27.957Z,1
2022-08-20T00:33:28.066Z,1
2022-08-20T00:35:28.391Z,1
2022-08-20T00:37:34.552Z,1
2022-08-20T00:39:27.750Z,1
2022-08-20T00:41:27.653Z,1
2022-08-20T00:43:27.700Z,1
2022-08-20T00:45:27.736Z,1
2022-08-20T00:47:27.774Z,1
2022-08-20T00:49:34.042Z,1
2022-08-20T00:51:38.058Z,1
2022-08-20T00:53:38.161Z,1
2022-08-20T00:55:31.417Z,1
2022-08-20T00:57:44.483Z,1
2022-08-20T00:59:34.567Z,1
2022-08-20T01:01:27.731Z,1
2022-08-20T01:03:27.674Z,1
2022-08-20T01:05:35.345Z,1
2022-08-20T01:07:41.186Z,1
2022-08-20T01:09:33.587Z,1
2022-08-20T01:11:27.795Z,1
2022-08-20T01:13:27.867Z,1
2022-08-20T01:15:35.054Z,1
2022-08-20T01:17:27.792Z,1
2022-08-20T01:19:29.252Z,1
2022-08-20T01:23:27.695Z,1
2022-08-20T01:25:35.026Z,1
2022-08-20T01:27:27.719Z,1
2022-08-20T01:29:34.950Z,1
2022-08-20T01:33:27.980Z,1
2022-08-20T01:35:27.938Z,1
2022-08-20T01:37:37.446Z,1
2022-08-20T01:39:34.387Z,1
2022-08-20T01:41:34.933Z,1
2022-08-20T01:45:28.013Z,1
2022-08-20T01:47:36.446Z,1
2022-08-20T01:49:38.401Z,1
2022-08-20T01:51:27.771Z,1
2022-08-20T01:53:35.478Z,1
2022-08-20T01:55:28.006Z,1
2022-08-20T01:57:34.576Z,1
2022-08-20T01:59:41.271Z,1
2022-08-20T02:01:28.061Z,1
2022-08-20T02:03:38.108Z,1
2022-08-20T02:05:30.348Z,1
2022-08-20T02:07:27.862Z,1
2022-08-20T02:09:27.796Z,1
2022-08-20T02:11:35.055Z,1
2022-08-20T02:13:28.212Z,1
2022-08-20T02:15:30.856Z,1
2022-08-20T02:17:34.730Z,1
2022-08-20T02:19:27.588Z,1
2022-08-20T02:21:28.025Z,1
2022-08-20T02:23:28.037Z,1
2022-08-20T02:25:28.016Z,1
2022-08-20T02:29:35.191Z,1
2022-08-20T02:31:29.876Z,1
2022-08-20T02:33:27.801Z,1
2022-08-20T02:35:27.860Z,1
2022-08-20T02:37:27.957Z,1
2022-08-20T02:39:34.892Z,1
2022-08-20T02:41:27.820Z,1
2022-08-20T02:43:27.716Z,1
2022-08-20T02:45:35.154Z,1
2022-08-20T02:47:27.645Z,1
2022-08-20T02:49:34.692Z,1
2022-08-20T02:51:38.125Z,1
2022-08-20T02:53:27.799Z,1
2022-08-20T02:55:28.433Z,1
2022-08-20T02:57:27.966Z,1
2022-08-20T02:59:28.041Z,1
2022-08-20T03:01:41.323Z,1
2022-08-20T03:03:27.771Z,1
2022-08-20T03:05:28.731Z,1
2022-08-20T03:07:27.760Z,1
2022-08-20T03:09:27.720Z,1
2022-08-20T03:11:28.906Z,1
2022-08-20T03:13:27.926Z,1
2022-08-20T03:15:27.805Z,1
2022-08-20T03:17:28.150Z,1
2022-08-20T03:19:37.903Z,1
2022-08-20T03:21:27.837Z,1
2022-08-20T03:23:38.259Z,1
2022-08-20T03:25:27.681Z,1
2022-08-20T03:27:36.112Z,1
2022-08-20T03:29:28.149Z,1
2022-08-20T03:31:27.915Z,1
2022-08-20T03:33:27.998Z,0
2022-08-20T03:35:35.036Z,0
2022-08-20T03:37:27.709Z,0
2022-08-20T03:39:27.701Z,0.1
2022-08-20T03:41:27.984Z,0.1
2022-08-20T03:43:27.737Z,0.2
2022-08-20T03:45:27.627Z,0.2
2022-08-20T03:47:34.134Z,0.3
2022-08-20T03:51:27.840Z,0.6
2022-08-20T03:53:35.395Z,0.8
2022-08-20T03:55:27.885Z,1.2
2022-08-20T03:57:27.892Z,1.6
2022-08-20T03:59:35.540Z,2.3
2022-08-20T04:01:36.967Z,3.5
2022-08-20T04:03:38.277Z,5
2022-08-20T04:05:35.282Z,6.7
2022-08-20T04:07:27.613Z,9
2022-08-20T04:09:34.534Z,12.8
2022-08-20T04:11:27.903Z,16.4
2022-08-20T04:13:27.689Z,20.1
2022-08-20T04:15:34.918Z,24.5
2022-08-20T04:17:34.508Z,28.5
2022-08-20T04:19:31.257Z,31.5
2022-08-20T04:21:27.888Z,38.5
2022-08-20T04:23:28.012Z,51.9
2022-08-20T04:25:28.023Z,70.1
2022-08-20T04:27:27.668Z,85.6
2022-08-20T04:29:35.552Z,99.5
2022-08-20T04:31:27.964Z,121.5
2022-08-20T04:33:33.623Z,148.4
2022-08-20T04:35:27.973Z,181.3
2022-08-20T04:37:38.397Z,221.4
2022-08-20T04:39:27.625Z,232.8
2022-08-20T04:41:35.002Z,257.2
2022-08-20T04:43:27.627Z,270.4
2022-08-20T04:45:27.713Z,314.2
2022-08-20T04:47:34.401Z,365
2022-08-20T04:49:27.812Z,424.1
2022-08-20T04:51:34.823Z,492.7
2022-08-20T04:53:34.992Z,572.5
2022-08-20T04:55:35.157Z,665.1
2022-08-20T04:57:33.193Z,699.2
2022-08-20T04:59:27.805Z,735.1
2022-08-20T05:01:28.141Z,735.1
2022-08-20T05:03:28.172Z,735.1
2022-08-20T05:05:34.781Z,772.8
2022-08-20T05:07:27.839Z,812.4
2022-08-20T05:09:25.073Z,812.4
2022-08-20T05:11:35.111Z,854.1
2022-08-20T05:13:37.810Z,812.4
2022-08-20T05:15:27.909Z,772.8
2022-08-20T05:17:27.990Z,897.8
2022-08-20T05:19:27.753Z,1096.6
2022-08-20T05:21:34.741Z,1152.9
2022-08-20T05:23:34.641Z,1096.6
2022-08-20T05:25:27.699Z,1212
2022-08-20T05:27:27.795Z,1274.1
2022-08-20T05:33:27.865Z,1556.2
2022-08-20T05:35:27.747Z,1556.2
2022-08-20T05:37:34.938Z,1556.2
2022-08-20T05:39:37.689Z,1339.4
2022-08-20T05:41:29.480Z,1339.4
2022-08-20T05:43:35.238Z,1274.1
2022-08-20T05:45:37.807Z,1339.4
2022-08-20T05:49:27.815Z,1339.4
2022-08-20T05:51:27.827Z,1339.4
2022-08-20T05:53:27.975Z,1339.4
2022-08-20T05:55:27.773Z,1408.1
2022-08-20T05:57:34.971Z,1408.1
2022-08-20T05:59:27.796Z,1339.4
2022-08-20T06:01:27.835Z,1408.1
2022-08-20T06:03:34.660Z,1408.1
2022-08-20T06:05:27.896Z,1408.1
2022-08-20T06:07:27.699Z,1408.1
2022-08-20T06:09:28.218Z,1408.1
2022-08-20T06:11:27.860Z,1480.3
2022-08-20T06:13:28.027Z,1556.2
2022-08-20T06:15:27.769Z,1636
2022-08-20T06:17:27.886Z,1636
2022-08-20T06:19:35.188Z,1719.9
2022-08-20T06:21:27.801Z,1808
2022-08-20T06:23:27.794Z,1900.7
2022-08-20T06:25:37.807Z,1900.7
2022-08-20T06:27:34.405Z,1998.2
2022-08-20T06:29:27.785Z,2100.6
2022-08-20T06:31:27.791Z,2100.6
2022-08-20T06:33:27.801Z,2208.3
2022-08-20T06:35:28.099Z,2208.3
2022-08-20T06:37:41.393Z,2100.6
2022-08-20T06:41:30.949Z,1998.2
2022-08-20T06:43:28.092Z,1998.2
2022-08-20T06:45:27.691Z,2100.6
2022-08-20T06:47:28.003Z,2100.6
2022-08-20T06:49:27.818Z,2100.6
2022-08-20T06:51:27.660Z,2100.6
2022-08-20T06:53:27.737Z,2100.6
2022-08-20T06:55:28.130Z,2208.3
2022-08-20T06:57:38.368Z,2321.6
2022-08-20T06:59:27.739Z,2565.7
2022-08-20T07:01:27.828Z,2697.3
2022-08-20T07:03:27.740Z,2697.3
2022-08-20T07:05:28.081Z,2835.6
2022-08-20T07:07:28.306Z,2835.6
2022-08-20T07:09:28.041Z,2981
2022-08-20T07:11:35.365Z,2981
2022-08-20T07:13:27.803Z,2981
2022-08-20T07:15:27.759Z,2981
2022-08-20T07:17:34.698Z,3133.8
2022-08-20T07:19:35.104Z,2981
2022-08-20T07:21:27.891Z,3133.8
2022-08-20T07:25:27.789Z,2981
2022-08-20T07:27:27.807Z,2981
2022-08-20T07:29:27.938Z,2981
2022-08-20T07:31:27.794Z,2981
2022-08-20T07:33:28.251Z,2981
2022-08-20T07:35:27.959Z,3294.5
2022-08-20T07:37:37.978Z,3133.8
2022-08-20T07:39:28.479Z,3294.5
2022-08-20T07:41:27.834Z,3463.4
2022-08-20T07:43:27.895Z,3294.5
2022-08-20T07:45:27.891Z,3463.4
2022-08-20T07:47:35.225Z,3463.4
2022-08-20T07:49:27.662Z,3294.5
2022-08-20T07:51:27.817Z,3294.5
2022-08-20T07:55:27.894Z,3294.5
2022-08-20T07:57:27.867Z,3133.8
2022-08-20T07:59:28.085Z,3463.4
2022-08-20T08:01:27.678Z,3641
2022-08-20T08:03:39.365Z,3641
2022-08-20T08:05:35.097Z,3827.6
2022-08-20T08:07:28.144Z,3827.6
2022-08-20T08:09:27.942Z,4230.2
2022-08-20T08:11:27.866Z,4447.1
2022-08-20T08:13:27.890Z,4230.2
2022-08-20T08:15:34.863Z,4023.9
2022-08-20T08:17:27.759Z,4447.1
2022-08-20T08:19:27.766Z,4447.1
2022-08-20T08:21:28.068Z,4230.2
2022-08-20T08:23:27.960Z,3827.6
2022-08-20T08:25:35.135Z,3641
2022-08-20T08:27:35.212Z,3294.5
2022-08-20T08:29:28.134Z,3133.8
2022-08-20T08:31:27.818Z,3133.8
2022-08-20T08:33:27.727Z,3463.4
2022-08-20T08:35:28.213Z,3827.6
2022-08-20T08:37:34.757Z,4023.9
2022-08-20T08:39:35.158Z,4023.9
2022-08-20T08:41:27.784Z,4023.9
2022-08-20T08:43:27.897Z,3827.6
2022-08-20T08:45:27.911Z,4230.2
2022-08-20T08:47:28.096Z,4023.9
2022-08-20T08:49:30.209Z,4230.2
2022-08-20T08:53:35.263Z,4230.2
2022-08-20T08:55:34.985Z,4447.1
2022-08-20T08:57:27.836Z,4230.2
2022-08-20T08:59:27.809Z,3641
2022-08-20T09:01:55.738Z,3463.4
2022-08-20T09:03:34.842Z,3641
2022-08-20T09:05:27.902Z,3641
2022-08-20T09:07:27.775Z,3641
2022-08-20T09:09:35.238Z,3294.5
2022-08-20T09:11:27.795Z,3294.5
2022-08-20T09:13:34.738Z,3463.4
2022-08-20T09:15:25.047Z,3463.4
2022-08-20T09:17:27.830Z,2981
2022-08-20T09:19:27.994Z,3294.5
2022-08-20T09:21:27.910Z,3294.5
2022-08-20T09:23:27.787Z,3294.5
2022-08-20T09:25:28.325Z,3133.8
2022-08-20T09:27:28.231Z,3133.8
2022-08-20T09:29:28.738Z,3133.8
2022-08-20T09:31:27.867Z,2981
2022-08-20T09:33:27.665Z,2835.6
2022-08-20T09:35:34.361Z,2697.3
2022-08-20T09:37:30.596Z,2697.3
2022-08-20T09:39:27.643Z,2981
2022-08-20T09:41:35.181Z,3294.5
2022-08-20T09:43:35.071Z,3463.4
2022-08-20T09:45:27.766Z,3641
2022-08-20T09:47:35.026Z,3827.6
2022-08-20T09:49:28.439Z,3827.6
2022-08-20T09:51:27.862Z,4023.9
2022-08-20T09:53:27.830Z,4447.1
2022-08-20T09:55:35.336Z,4447.1
2022-08-20T09:57:28.403Z,4447.1
2022-08-20T09:59:27.858Z,4675.1
2022-08-20T10:01:27.862Z,4675.1
2022-08-20T10:03:34.498Z,4914.8
2022-08-20T10:05:27.743Z,4914.8
2022-08-20T10:07:27.662Z,4914.8
2022-08-20T10:09:34.758Z,4914.8
2022-08-20T10:11:31.451Z,4675.1
2022-08-20T10:13:27.753Z,4914.8
2022-08-20T10:15:37.838Z,5166.8
2022-08-20T10:19:27.668Z,4914.8
2022-08-20T10:21:27.681Z,4914.8
2022-08-20T10:23:27.816Z,4914.8
2022-08-20T10:25:27.802Z,4914.8
2022-08-20T10:27:28.203Z,4675.1
2022-08-20T10:29:27.887Z,4675.1
2022-08-20T10:31:27.678Z,4230.2
2022-08-20T10:33:27.768Z,4023.9
2022-08-20T10:35:34.999Z,3827.6
2022-08-20T10:37:27.764Z,3641
2022-08-20T10:39:27.756Z,3463.4
2022-08-20T10:41:27.982Z,3463.4
2022-08-20T10:43:25.123Z,3463.4
2022-08-20T10:45:34.928Z,3463.4
2022-08-20T10:47:27.724Z,3641
2022-08-20T10:49:37.796Z,3827.6
2022-08-20T10:51:30.487Z,4230.2
2022-08-20T10:53:38.284Z,5431.7
2022-08-20T10:55:27.975Z,6002.9
2022-08-20T10:57:27.937Z,6634.2
2022-08-20T10:59:27.830Z,6974.4
2022-08-20T11:01:28.852Z,6974.4
2022-08-20T11:03:27.892Z,6634.2
2022-08-20T11:05:27.867Z,6310.7
2022-08-20T11:09:27.792Z,5431.7
2022-08-20T11:11:35.183Z,4914.8
2022-08-20T11:13:27.647Z,4675.1
2022-08-20T11:15:27.923Z,4230.2
2022-08-20T11:17:37.190Z,3641
2022-08-20T11:19:34.633Z,3133.8
2022-08-20T11:21:34.649Z,2440.6
2022-08-20T11:23:28.007Z,1808
2022-08-20T11:25:27.974Z,1339.4
2022-08-20T11:27:27.744Z,1339.4
2022-08-20T11:29:31.008Z,1636
2022-08-20T11:31:27.951Z,2440.6
2022-08-20T11:33:27.652Z,3294.5
2022-08-20T11:35:42.433Z,4230.2
2022-08-20T11:37:27.654Z,4914.8
2022-08-20T11:39:27.877Z,5166.8
2022-08-20T11:41:27.853Z,5710.1
2022-08-20T11:43:34.532Z,6002.9
2022-08-20T11:45:28.317Z,6634.2
2022-08-20T11:47:35.056Z,6974.4
2022-08-20T11:49:27.823Z,7332
2022-08-20T11:51:38.804Z,7707.9
2022-08-20T11:53:28.008Z,7707.9
2022-08-20T11:55:28.535Z,8103.1
2022-08-20T11:57:27.781Z,8518.5
2022-08-20T11:59:34.680Z,8955.3
2022-08-20T12:01:27.788Z,8955.3
2022-08-20T12:03:27.790Z,9414.4
2022-08-20T12:05:28.174Z,9414.4
2022-08-20T12:07:27.654Z,9414.4
2022-08-20T12:09:27.790Z,9414.4
2022-08-20T12:11:34.670Z,8955.3
2022-08-20T12:13:30.607Z,8518.5
2022-08-20T12:15:28.166Z,8518.5
2022-08-20T12:17:28.058Z,7707.9
2022-08-20T12:19:34.984Z,6634.2
2022-08-20T12:21:30.771Z,6974.4
2022-08-20T12:23:34.869Z,6310.7
2022-08-20T12:25:27.680Z,6310.7
2022-08-20T12:27:27.796Z,6310.7
2022-08-20T12:29:35.194Z,6002.9
2022-08-20T12:31:27.773Z,5710.1
2022-08-20T12:33:28.008Z,5710.1
2022-08-20T12:35:35.539Z,5166.8
2022-08-20T12:37:27.848Z,4914.8
2022-08-20T12:39:35.109Z,5166.8
2022-08-20T12:41:27.807Z,5710.1
2022-08-20T12:43:27.918Z,6002.9
2022-08-20T12:45:27.912Z,6310.7
2022-08-20T12:47:27.914Z,6974.4
2022-08-20T12:49:28.016Z,7332
2022-08-20T12:51:27.957Z,7332
2022-08-20T12:53:38.162Z,7332
2022-08-20T12:55:27.757Z,7332
2022-08-20T12:57:28.276Z,7332
2022-08-20T12:59:28.159Z,6974.4
2022-08-20T13:01:28.043Z,6634.2
2022-08-20T13:03:40.259Z,5710.1
2022-08-20T13:05:28.071Z,4675.1
2022-08-20T13:07:28.333Z,4023.9
2022-08-20T13:09:28.115Z,3463.4
2022-08-20T13:11:27.951Z,2981
2022-08-20T13:13:35.366Z,2835.6
2022-08-20T13:15:34.649Z,2697.3
2022-08-20T13:17:38.519Z,3133.8
2022-08-20T13:19:28.660Z,3641
2022-08-20T13:21:28.261Z,4447.1
2022-08-20T13:23:28.822Z,5431.7
2022-08-20T13:25:28.303Z,6634.2
2022-08-20T13:27:37.879Z,6974.4
2022-08-20T13:29:35.314Z,7707.9
2022-08-20T13:31:34.914Z,8955.3
2022-08-20T13:33:27.980Z,9414.4
2022-08-20T13:35:29.136Z,9414.4
2022-08-20T13:37:27.900Z,9897.1
2022-08-20T13:39:27.933Z,8518.5
2022-08-20T13:41:28.171Z,8518.5
2022-08-20T13:43:34.955Z,8103.1
2022-08-20T13:45:27.776Z,6974.4
2022-08-20T13:47:35.332Z,6634.2
2022-08-20T13:49:27.934Z,5431.7
2022-08-20T13:51:35.022Z,4230.2
2022-08-20T13:53:34.547Z,3463.4
2022-08-20T13:55:35.167Z,2981
2022-08-20T13:57:34.973Z,2835.6
2022-08-20T13:59:28.087Z,2440.6
2022-08-20T14:01:28.059Z,1900.7
2022-08-20T14:03:34.934Z,1274.1
2022-08-20T14:05:27.823Z,1152.9
2022-08-20T14:07:32.137Z,1274.1
2022-08-20T14:09:34.824Z,1480.3
2022-08-20T14:11:34.832Z,1636
2022-08-20T14:13:35.167Z,1998.2
2022-08-20T14:15:27.814Z,2440.6
2022-08-20T14:17:27.947Z,2835.6
2022-08-20T14:19:27.755Z,3133.8
2022-08-20T14:21:28.014Z,3463.4
2022-08-20T14:23:28.225Z,3641
2022-08-20T14:27:31.205Z,4023.9
2022-08-20T14:29:35.906Z,4023.9
2022-08-20T14:31:27.871Z,4230.2
2022-08-20T14:33:27.831Z,4230.2
2022-08-20T14:35:35.156Z,4230.2
2022-08-20T14:37:27.712Z,4230.2
2022-08-20T14:39:28.108Z,4023.9
2022-08-20T14:41:35.134Z,3827.6
2022-08-20T14:43:27.901Z,3827.6
2022-08-20T14:45:27.931Z,3827.6
2022-08-20T14:47:27.918Z,4023.9
2022-08-20T14:49:27.874Z,3827.6
2022-08-20T14:51:27.872Z,3463.4
2022-08-20T14:53:27.837Z,3294.5
2022-08-20T14:55:27.805Z,2981
2022-08-20T14:57:27.938Z,2835.6
2022-08-20T14:59:28.015Z,2697.3
2022-08-20T15:01:27.831Z,2697.3
2022-08-20T15:03:27.837Z,2697.3
2022-08-20T15:05:25.130Z,2697.3
2022-08-20T15:07:27.947Z,2697.3
2022-08-20T15:09:27.952Z,2697.3
2022-08-20T15:11:31.309Z,2697.3
2022-08-20T15:13:28.093Z,2565.7
2022-08-20T15:15:37.917Z,2440.6
2022-08-20T15:17:34.921Z,2321.6
2022-08-20T15:19:27.806Z,2100.6
2022-08-20T15:21:44.858Z,1998.2
2022-08-20T15:23:31.316Z,1900.7
2022-08-20T15:25:28.095Z,1998.2
2022-08-20T15:27:27.696Z,2100.6
2022-08-20T15:29:27.930Z,2100.6
2022-08-20T15:31:27.868Z,2100.6
2022-08-20T15:33:28.044Z,1998.2
2022-08-20T15:35:28.321Z,1900.7
2022-08-20T15:37:27.717Z,1900.7
2022-08-20T15:39:34.757Z,1719.9
2022-08-20T15:41:35.057Z,1636
2022-08-20T15:43:27.780Z,1636
2022-08-20T15:45:34.873Z,1636
2022-08-20T15:47:28.007Z,1636
2022-08-20T15:49:27.960Z,1636
2022-08-20T15:51:27.771Z,1636
2022-08-20T15:53:27.997Z,1636
2022-08-20T15:55:35.012Z,1556.2
2022-08-20T15:57:34.657Z,1480.3
2022-08-20T15:59:27.716Z,1408.1
2022-08-20T16:01:34.784Z,1408.1
2022-08-20T16:03:35.167Z,1408.1
2022-08-20T16:05:34.337Z,1408.1
2022-08-20T16:07:27.933Z,1408.1
2022-08-20T16:09:28.011Z,1408.1
2022-08-20T16:13:27.838Z,1556.2
2022-08-20T16:15:27.806Z,1719.9
2022-08-20T16:17:27.852Z,1808
2022-08-20T16:21:28.095Z,1900.7
2022-08-20T16:23:35.356Z,1998.2
2022-08-20T16:25:28.279Z,1998.2
2022-08-20T16:27:28.669Z,1998.2
2022-08-20T16:29:28.116Z,1998.2
2022-08-20T16:31:35.361Z,1900.7
2022-08-20T16:33:27.699Z,1900.7
2022-08-20T16:35:41.867Z,1900.7
2022-08-20T16:37:27.873Z,1900.7
2022-08-20T16:41:34.770Z,1808
2022-08-20T16:43:35.069Z,1808
2022-08-20T16:45:35.237Z,1808
2022-08-20T16:47:27.810Z,1719.9
2022-08-20T16:49:38.020Z,1719.9
2022-08-20T16:51:27.869Z,1719.9
2022-08-20T16:53:34.758Z,1636
2022-08-20T16:55:27.871Z,1636
2022-08-20T16:57:28.396Z,1556.2
2022-08-20T16:59:28.318Z,1480.3
2022-08-20T17:01:27.832Z,1408.1
2022-08-20T17:03:31.219Z,1408.1
2022-08-20T17:05:28.219Z,1339.4
2022-08-20T17:07:29.812Z,1339.4
2022-08-20T17:09:27.824Z,1212
2022-08-20T17:11:34.553Z,1152.9
2022-08-20T17:13:34.688Z,1096.6
2022-08-20T17:15:27.778Z,1043.1
2022-08-20T17:17:28.008Z,992.3
2022-08-20T17:19:34.681Z,943.9
2022-08-20T17:21:34.216Z,897.8
2022-08-20T17:23:28.247Z,943.9
2022-08-20T17:25:28.325Z,943.9
2022-08-20T17:27:28.162Z,943.9
2022-08-20T17:29:27.904Z,1043.1
2022-08-20T17:31:31.283Z,992.3
2022-08-20T17:33:41.367Z,1043.1
2022-08-20T17:35:27.938Z,1096.6
2022-08-20T17:37:28.127Z,1096.6
2022-08-20T17:39:27.742Z,1212
2022-08-20T17:41:28.089Z,1096.6
2022-08-20T17:43:27.972Z,992.3
2022-08-20T17:45:27.709Z,992.3
2022-08-20T17:47:34.412Z,943.9
2022-08-20T17:49:27.756Z,992.3
2022-08-20T17:53:34.509Z,812.4
2022-08-20T17:55:27.727Z,735.1
2022-08-20T17:57:27.780Z,665.1
2022-08-20T17:59:44.434Z,632.7
2022-08-20T18:01:34.284Z,572.5
2022-08-20T18:03:27.831Z,518
2022-08-20T18:05:27.771Z,468.7
2022-08-20T18:07:34.708Z,424.1
2022-08-20T18:09:27.981Z,383.8
2022-08-20T18:11:37.701Z,330.3
2022-08-20T18:13:34.861Z,284.3
2022-08-20T18:15:34.316Z,244.7
2022-08-20T18:17:27.763Z,210.6
2022-08-20T18:19:27.922Z,172.4
2022-08-20T18:21:41.141Z,134.3
2022-08-20T18:23:28.072Z,109.9
2022-08-20T18:25:27.722Z,81.5
2022-08-20T18:27:27.739Z,57.4
2022-08-20T18:29:27.883Z,40.4
2022-08-20T18:31:27.741Z,27.1
2022-08-20T18:33:27.809Z,16.4
2022-08-20T18:35:27.853Z,10.5
2022-08-20T18:37:37.562Z,7
2022-08-20T18:39:34.448Z,5.2
2022-08-20T18:41:27.823Z,3.9
2022-08-20T18:43:27.988Z,2.9
2022-08-20T18:45:28.301Z,2.1
2022-08-20T18:47:28.234Z,1.5
2022-08-20T18:49:28.144Z,1.2
2022-08-20T18:51:27.904Z,0.8
2022-08-20T18:53:31.658Z,0.6
2022-08-20T18:55:27.975Z,0.4
2022-08-20T18:57:40.547Z,0.3
2022-08-20T18:59:37.727Z,0.3
2022-08-20T19:01:38.000Z,0.2
2022-08-20T19:03:27.751Z,0.1
2022-08-20T19:05:34.513Z,0.1
2022-08-20T19:07:41.699Z,0.1
2022-08-20T19:09:27.711Z,0
2022-08-20T19:11:27.899Z,0
2022-08-20T19:13:27.695Z,0
2022-08-20T19:15:41.094Z,0
2022-08-20T19:17:37.561Z,0
2022-08-20T19:19:34.367Z,1
2022-08-20T19:21:27.852Z,1
2022-08-20T19:23:28.180Z,1
2022-08-20T19:25:27.770Z,1
2022-08-20T19:27:27.710Z,1
2022-08-20T19:29:27.904Z,1
2022-08-20T19:31:27.825Z,1
2022-08-20T19:33:29.617Z,1
2022-08-20T19:35:34.463Z,1
2022-08-20T19:37:44.435Z,1
2022-08-20T19:39:27.790Z,1
2022-08-20T19:41:29.277Z,1
2022-08-20T19:45:27.719Z,1
2022-08-20T19:47:27.862Z,1
2022-08-20T19:49:34.494Z,1
2022-08-20T19:51:35.014Z,1
2022-08-20T19:53:28.862Z,1
2022-08-20T19:55:34.261Z,1
2022-08-20T19:57:27.743Z,1
2022-08-20T19:59:41.551Z,1
2022-08-20T20:01:34.897Z,1
2022-08-20T20:03:27.741Z,1
2022-08-20T20:05:34.616Z,1
2022-08-20T20:07:28.047Z,1
2022-08-20T20:09:27.916Z,1
2022-08-20T20:11:27.926Z,1
2022-08-20T20:13:31.254Z,1
2022-08-20T20:15:27.848Z,1
2022-08-20T20:17:27.781Z,1
2022-08-20T20:19:34.350Z,1
2022-08-20T20:21:27.723Z,1
2022-08-20T20:23:27.779Z,1
2022-08-20T20:25:27.887Z,1
2022-08-20T20:27:28.024Z,1
2022-08-20T20:29:27.775Z,1
2022-08-20T20:31:28.075Z,1
2022-08-20T20:33:27.890Z,1
2022-08-20T20:35:27.986Z,1
2022-08-20T20:37:42.678Z,1
2022-08-20T20:39:37.447Z,1
2022-08-20T20:41:27.774Z,1
2022-08-20T20:43:27.819Z,1
2022-08-20T20:45:27.808Z,1
2022-08-20T20:47:27.848Z,1
2022-08-20T20:49:37.573Z,1
2022-08-20T20:51:27.910Z,1
2022-08-20T20:53:29.309Z,1
2022-08-20T20:55:34.615Z,1
2022-08-20T20:57:36.326Z,1
2022-08-20T20:59:34.787Z,1
2022-08-20T21:01:46.167Z,1
2022-08-20T21:03:27.989Z,1
2022-08-20T21:05:28.043Z,1
2022-08-20T21:07:34.477Z,1
2022-08-20T21:09:27.762Z,1
2022-08-20T21:11:34.431Z,1
2022-08-20T21:13:27.822Z,1
2022-08-20T21:15:28.151Z,1
2022-08-20T21:17:27.828Z,1
2022-08-20T21:19:27.741Z,1
2022-08-20T21:21:27.758Z,1
2022-08-20T21:23:39.573Z,1
2022-08-20T21:25:27.846Z,1
2022-08-20T21:27:27.743Z,1
2022-08-20T21:29:32.224Z,1
2022-08-20T21:31:27.873Z,1
2022-08-20T21:33:27.866Z,1
2022-08-20T21:35:27.844Z,1
2022-08-20T21:37:28.005Z,1
2022-08-20T21:39:27.885Z,1
2022-08-20T21:41:29.669Z,1
2022-08-20T21:43:27.961Z,1
2022-08-20T21:45:34.604Z,1
2022-08-20T21:47:27.931Z,1
2022-08-20T21:49:28.149Z,1
2022-08-20T21:51:27.802Z,1
2022-08-20T21:53:27.794Z,1
2022-08-20T21:55:27.958Z,1
2022-08-20T21:57:37.863Z,1
2022-08-20T21:59:28.402Z,1
2022-08-20T22:01:28.024Z,1
2022-08-20T22:03:27.873Z,1
2022-08-20T22:05:27.787Z,1
2022-08-20T22:07:34.831Z,1
2022-08-20T22:09:27.754Z,1
2022-08-20T22:11:28.209Z,1
2022-08-20T22:13:28.049Z,1
2022-08-20T22:15:34.697Z,1
2022-08-20T22:17:37.846Z,1
2022-08-20T22:19:27.737Z,1
2022-08-20T22:21:34.696Z,1
2022-08-20T22:23:34.465Z,1
2022-08-20T22:25:27.812Z,1
2022-08-20T22:27:28.098Z,1
2022-08-20T22:29:44.493Z,1
2022-08-20T22:31:37.268Z,1
2022-08-20T22:33:34.257Z,1
2022-08-20T22:35:27.830Z,1
2022-08-20T22:37:27.792Z,1
2022-08-20T22:39:34.547Z,1
2022-08-20T22:41:34.647Z,1
2022-08-20T22:43:27.745Z,1
2022-08-20T22:45:34.721Z,1
2022-08-20T22:47:34.594Z,1
2022-08-20T22:49:27.734Z,1
2022-08-20T22:51:27.739Z,1
2022-08-20T22:53:27.811Z,1
2022-08-20T22:57:27.745Z,1
2022-08-20T22:59:34.072Z,1
2022-08-20T23:01:27.858Z,1
2022-08-20T23:03:29.832Z,1
2022-08-20T23:05:27.944Z,1
2022-08-20T23:07:27.951Z,1
2022-08-20T23:09:27.900Z,1
2022-08-20T23:11:27.983Z,1
2022-08-20T23:13:27.866Z,1
2022-08-20T23:15:34.977Z,1
2022-08-20T23:17:26.646Z,1
2022-08-20T23:19:34.281Z,1
2022-08-20T23:21:27.752Z,1
2022-08-20T23:23:27.812Z,1
2022-08-20T23:25:34.530Z,1
2022-08-20T23:27:27.886Z,1
2022-08-20T23:29:28.121Z,1
2022-08-20T23:31:34.631Z,1
2022-08-20T23:33:28.049Z,1
2022-08-20T23:35:37.969Z,1
2022-08-20T23:37:27.914Z,1
2022-08-20T23:39:34.657Z,1
2022-08-20T23:41:27.925Z,1
2022-08-20T23:43:27.901Z,1
2022-08-20T23:45:34.534Z,1
2022-08-20T23:47:27.807Z,1
2022-08-20T23:49:27.890Z,1
2022-08-20T23:51:27.899Z,1
2022-08-20T23:53:27.986Z,1
2022-08-20T23:55:34.674Z,1
2022-08-20T23:57:27.770Z,1
2022-08-20T23:59:28.102Z,1
